createdAt,value
2022-12-31T08:40:14.581Z,16.88
2022-12-31T08:41:14.532Z,22.50
2022-12-31T08:42:14.520Z,22.50
2022-12-31T08:43:14.509Z,22.50
2022-12-31T08:44:14.492Z,16.88
2022-12-31T08:45:14.490Z,16.88
2022-12-31T08:46:14.560Z,16.88
2022-12-31T08:47:14.454Z,22.50
2022-12-31T08:48:14.437Z,16.88
2022-12-31T08:49:14.430Z,16.88
2022-12-31T08:50:14.428Z,22.50
2022-12-31T08:51:14.451Z,16.88
2022-12-31T08:52:14.392Z,16.88
2022-12-31T08:53:14.394Z,16.88
2022-12-31T08:54:14.364Z,11.25
2022-12-31T08:55:14.347Z,11.25
2022-12-31T08:56:14.365Z,11.25
2022-12-31T08:57:14.357Z,11.25
2022-12-31T08:58:14.317Z,16.88
2022-12-31T08:59:14.316Z,22.50
2022-12-31T09:00:14.296Z,22.50
2022-12-31T09:01:14.472Z,28.12
2022-12-31T09:02:14.340Z,11.25
2022-12-31T09:03:14.305Z,11.25
2022-12-31T09:04:14.312Z,22.50
2022-12-31T09:05:14.258Z,16.88
2022-12-31T09:06:14.234Z,16.88
2022-12-31T09:07:14.231Z,11.25
2022-12-31T09:08:14.203Z,11.25
2022-12-31T09:09:14.211Z,16.88
2022-12-31T09:10:14.185Z,16.88
2022-12-31T09:11:19.205Z,11.25
2022-12-31T09:12:15.192Z,16.88
2022-12-31T09:13:14.166Z,16.88
2022-12-31T09:14:14.177Z,16.88
2022-12-31T09:15:14.137Z,22.50
2022-12-31T09:16:14.184Z,22.50
2022-12-31T09:17:14.113Z,16.88
2022-12-31T09:18:14.106Z,16.88
2022-12-31T09:19:14.106Z,11.25
2022-12-31T09:20:14.102Z,16.88
2022-12-31T09:21:14.075Z,28.12
2022-12-31T09:22:14.054Z,11.25
2022-12-31T09:23:14.061Z,11.25
2022-12-31T09:24:14.053Z,11.25
2022-12-31T09:25:14.011Z,16.88
2022-12-31T09:26:13.996Z,16.88
2022-12-31T09:27:13.999Z,22.50
2022-12-31T09:28:14.007Z,22.50
2022-12-31T09:29:13.971Z,16.88
2022-12-31T09:30:13.984Z,16.88
2022-12-31T09:31:14.156Z,22.50
2022-12-31T09:32:13.933Z,16.88
2022-12-31T09:33:13.915Z,22.50
2022-12-31T09:34:13.924Z,22.50
2022-12-31T09:35:13.909Z,28.12
2022-12-31T09:36:13.888Z,33.75
2022-12-31T09:37:13.882Z,33.75
2022-12-31T09:38:13.880Z,22.50
2022-12-31T09:39:13.849Z,28.12
2022-12-31T09:40:13.852Z,28.12
2022-12-31T09:41:13.872Z,22.50
2022-12-31T09:42:13.828Z,11.25
2022-12-31T09:43:13.815Z,16.88
2022-12-31T09:44:13.843Z,22.50
2022-12-31T09:45:13.785Z,22.50
2022-12-31T09:46:13.827Z,16.88
2022-12-31T09:47:13.775Z,28.12
2022-12-31T09:48:13.760Z,22.50
2022-12-31T09:49:13.747Z,22.50
2022-12-31T09:50:13.726Z,16.88
2022-12-31T09:51:13.717Z,11.25
2022-12-31T09:52:13.703Z,16.88
2022-12-31T09:53:13.704Z,16.88
2022-12-31T09:54:13.678Z,16.88
2022-12-31T09:55:13.666Z,16.88
2022-12-31T09:56:13.673Z,16.88
2022-12-31T09:57:31.852Z,22.50
2022-12-31T09:58:14.666Z,16.88
2022-12-31T09:59:13.628Z,16.88
2022-12-31T10:00:13.646Z,22.50
2022-12-31T10:01:13.776Z,22.50
2022-12-31T10:02:13.930Z,22.50
2022-12-31T10:03:13.650Z,16.88
2022-12-31T10:04:13.575Z,28.12
2022-12-31T10:05:13.561Z,22.50
2022-12-31T10:06:13.567Z,16.88
2022-12-31T10:07:13.534Z,22.50
2022-12-31T10:08:13.585Z,28.12
2022-12-31T10:09:13.518Z,28.12
2022-12-31T10:10:13.520Z,16.88
2022-12-31T10:11:13.505Z,22.50
2022-12-31T10:12:13.475Z,22.50
2022-12-31T10:13:13.478Z,22.50
2022-12-31T10:14:13.470Z,22.50
2022-12-31T10:15:13.447Z,16.88
2022-12-31T10:16:13.471Z,22.50
2022-12-31T10:17:14.554Z,22.50
2022-12-31T10:18:13.423Z,16.88
2022-12-31T10:19:13.415Z,22.50
2022-12-31T10:20:13.405Z,22.50
2022-12-31T10:21:13.419Z,22.50
2022-12-31T10:22:13.365Z,22.50
2022-12-31T10:23:13.367Z,22.50
2022-12-31T10:24:13.362Z,16.88
2022-12-31T10:25:13.333Z,28.12
2022-12-31T10:26:13.375Z,28.12
2022-12-31T10:27:13.314Z,22.50
2022-12-31T10:28:13.308Z,33.75
2022-12-31T10:29:13.302Z,39.38
2022-12-31T10:30:13.304Z,39.38
2022-12-31T10:31:13.316Z,33.75
2022-12-31T10:32:13.283Z,33.75
2022-12-31T10:33:13.258Z,33.75
2022-12-31T10:34:13.238Z,33.75
2022-12-31T10:35:13.230Z,22.50
2022-12-31T10:36:13.200Z,22.50
2022-12-31T10:37:13.207Z,22.50
2022-12-31T10:38:14.183Z,22.50
2022-12-31T10:39:16.460Z,22.50
2022-12-31T10:40:14.173Z,16.88
2022-12-31T10:41:13.191Z,16.88
2022-12-31T10:42:13.158Z,22.50
2022-12-31T10:43:13.141Z,16.88
2022-12-31T10:44:13.115Z,11.25
2022-12-31T10:45:13.121Z,11.25
2022-12-31T10:46:16.342Z,5.62
2022-12-31T10:47:14.149Z,5.62
2022-12-31T10:48:13.113Z,5.62
2022-12-31T10:49:13.075Z,5.62
2022-12-31T10:50:13.046Z,5.62
2022-12-31T10:51:13.045Z,11.25
2022-12-31T10:52:13.034Z,5.62
2022-12-31T10:53:13.032Z,5.62
2022-12-31T10:54:13.000Z,5.62
2022-12-31T10:55:12.992Z,5.62
2022-12-31T10:56:12.975Z,5.62
2022-12-31T10:57:12.985Z,5.62
2022-12-31T10:58:16.084Z,5.62
2022-12-31T10:59:12.960Z,11.25
2022-12-31T11:00:12.936Z,16.88
2022-12-31T11:01:13.101Z,22.50
2022-12-31T11:02:13.117Z,16.88
2022-12-31T11:03:12.970Z,11.25
2022-12-31T11:04:12.916Z,11.25
2022-12-31T11:05:12.878Z,16.88
2022-12-31T11:06:12.878Z,22.50
2022-12-31T11:07:12.859Z,22.50
2022-12-31T11:08:12.877Z,16.88
2022-12-31T11:09:12.839Z,16.88
2022-12-31T11:10:12.827Z,11.25
2022-12-31T11:11:12.814Z,16.88
2022-12-31T11:12:13.793Z,11.25
2022-12-31T11:13:12.789Z,11.25
2022-12-31T11:14:12.800Z,11.25
2022-12-31T11:15:12.775Z,16.88
2022-12-31T11:16:12.784Z,16.88
2022-12-31T11:17:12.742Z,11.25
2022-12-31T11:18:12.730Z,11.25
2022-12-31T11:19:12.761Z,16.88
2022-12-31T11:20:12.741Z,16.88
2022-12-31T11:21:12.707Z,28.12
2022-12-31T11:22:12.698Z,33.75
2022-12-31T11:23:12.692Z,33.75
2022-12-31T11:24:12.685Z,28.12
2022-12-31T11:25:12.663Z,28.12
2022-12-31T11:26:12.649Z,33.75
2022-12-31T11:27:13.547Z,33.75
2022-12-31T11:28:12.638Z,28.12
2022-12-31T11:29:12.617Z,22.50
2022-12-31T11:30:12.652Z,28.12
2022-12-31T11:31:12.662Z,33.75
2022-12-31T11:32:12.570Z,45.00
2022-12-31T11:33:12.584Z,45.00
2022-12-31T11:34:12.578Z,50.62
2022-12-31T11:35:12.578Z,56.25
2022-12-31T11:36:12.583Z,45.00
2022-12-31T11:37:12.514Z,33.75
2022-12-31T11:38:12.506Z,33.75
2022-12-31T11:39:12.495Z,28.12
2022-12-31T11:40:12.495Z,28.12
2022-12-31T11:41:12.470Z,33.75
2022-12-31T11:42:12.483Z,28.12
2022-12-31T11:43:12.449Z,22.50
2022-12-31T11:44:12.431Z,28.12
2022-12-31T11:45:12.441Z,28.12
2022-12-31T11:46:12.481Z,22.50
2022-12-31T11:47:12.435Z,16.88
2022-12-31T11:49:13.382Z,11.25
2022-12-31T11:50:12.378Z,11.25
2022-12-31T11:51:12.373Z,16.88
2022-12-31T11:52:15.067Z,16.88
2022-12-31T11:53:12.335Z,16.88
2022-12-31T11:54:12.321Z,16.88
2022-12-31T11:55:12.315Z,16.88
2022-12-31T11:56:12.309Z,11.25
2022-12-31T11:57:12.314Z,11.25
2022-12-31T11:58:12.289Z,11.25
2022-12-31T11:59:19.024Z,16.88
2022-12-31T12:00:13.302Z,16.88
2022-12-31T12:01:12.264Z,28.12
2022-12-31T12:02:12.244Z,28.12
2022-12-31T12:03:12.330Z,28.12
2022-12-31T12:04:12.254Z,33.75
2022-12-31T12:05:12.227Z,28.12
2022-12-31T12:06:12.202Z,22.50
2022-12-31T12:07:16.690Z,22.50
2022-12-31T12:08:43.071Z,22.50
2022-12-31T12:10:29.266Z,28.12
2022-12-31T12:11:26.434Z,28.12
2022-12-31T12:12:25.419Z,22.50
2022-12-31T12:13:25.449Z,22.50
2022-12-31T12:14:25.392Z,22.50
2022-12-31T12:15:25.381Z,22.50
2022-12-31T12:16:25.427Z,28.12
2022-12-31T12:17:25.363Z,22.50
2022-12-31T12:18:25.335Z,22.50
2022-12-31T12:19:25.357Z,28.12
2022-12-31T12:20:25.320Z,22.50
2022-12-31T12:21:25.305Z,22.50
2022-12-31T12:22:25.338Z,22.50
2022-12-31T12:23:26.304Z,28.12
2022-12-31T12:24:25.277Z,33.75
2022-12-31T12:25:25.293Z,39.38
2022-12-31T12:26:25.259Z,45.00
2022-12-31T12:27:25.258Z,45.00
2022-12-31T12:28:25.220Z,45.00
2022-12-31T12:29:25.231Z,50.62
2022-12-31T12:30:25.220Z,50.62
2022-12-31T12:31:25.212Z,56.25
2022-12-31T12:32:25.186Z,67.50
2022-12-31T12:33:25.173Z,84.38
2022-12-31T12:34:25.159Z,90.00
2022-12-31T12:35:25.166Z,78.75
2022-12-31T12:36:25.144Z,56.25
2022-12-31T12:37:25.156Z,50.62
2022-12-31T12:38:25.158Z,56.25
2022-12-31T12:39:25.131Z,56.25
2022-12-31T12:40:33.095Z,50.62
2022-12-31T12:41:26.099Z,45.00
2022-12-31T12:42:25.086Z,45.00
2022-12-31T12:43:25.056Z,39.38
2022-12-31T12:44:25.042Z,33.75
2022-12-31T12:45:25.054Z,28.12
2022-12-31T12:46:25.036Z,22.50
2022-12-31T12:47:25.023Z,22.50
2022-12-31T12:48:24.995Z,39.38
2022-12-31T12:49:25.986Z,45.00
2022-12-31T12:50:24.977Z,56.25
2022-12-31T12:51:24.991Z,45.00
2022-12-31T12:52:24.967Z,33.75
2022-12-31T12:53:24.942Z,22.50
2022-12-31T12:54:24.946Z,28.12
2022-12-31T12:55:24.918Z,28.12
2022-12-31T12:56:24.919Z,33.75
2022-12-31T12:57:24.918Z,28.12
2022-12-31T12:58:24.881Z,39.38
2022-12-31T12:59:24.888Z,45.00
2022-12-31T13:00:24.861Z,45.00
2022-12-31T13:01:25.044Z,50.62
2022-12-31T13:02:24.981Z,50.62
2022-12-31T13:03:24.830Z,45.00
2022-12-31T13:04:40.200Z,22.50
2022-12-31T13:05:28.220Z,22.50
2022-12-31T13:06:24.812Z,22.50
2022-12-31T13:07:24.786Z,16.88
2022-12-31T13:08:24.771Z,16.88
2022-12-31T13:09:24.778Z,16.88
2022-12-31T13:10:24.784Z,16.88
2022-12-31T13:11:24.758Z,16.88
2022-12-31T13:12:24.743Z,16.88
2022-12-31T13:13:25.702Z,16.88
2022-12-31T13:14:24.731Z,22.50
2022-12-31T13:15:24.714Z,28.12
2022-12-31T13:16:24.698Z,33.75
2022-12-31T13:17:24.714Z,28.12
2022-12-31T13:18:24.671Z,28.12
2022-12-31T13:19:24.667Z,33.75
2022-12-31T13:20:24.649Z,28.12
2022-12-31T13:21:24.643Z,22.50
2022-12-31T13:22:24.611Z,16.88
2022-12-31T13:23:24.617Z,11.25
2022-12-31T13:24:24.607Z,5.62
2022-12-31T13:25:24.592Z,5.62
2022-12-31T13:26:24.600Z,5.62
2022-12-31T13:27:24.683Z,5.62
2022-12-31T13:28:38.287Z,5.62
2022-12-31T13:29:24.539Z,11.25
2022-12-31T13:30:24.534Z,22.50
2022-12-31T13:31:24.574Z,16.88
2022-12-31T13:32:24.511Z,22.50
2022-12-31T13:33:24.510Z,28.12
2022-12-31T13:34:24.505Z,33.75
2022-12-31T13:35:24.483Z,33.75
2022-12-31T13:36:24.454Z,39.38
2022-12-31T13:37:24.458Z,39.38
2022-12-31T13:38:55.186Z,39.38
2022-12-31T13:39:24.435Z,28.12
2022-12-31T13:40:24.427Z,22.50
2022-12-31T13:41:24.417Z,22.50
2022-12-31T13:42:24.424Z,16.88
2022-12-31T13:43:24.375Z,16.88
2022-12-31T13:44:24.397Z,16.88
2022-12-31T13:45:24.480Z,22.50
2022-12-31T13:46:24.349Z,22.50
2022-12-31T13:47:24.341Z,33.75
2022-12-31T13:52:04.172Z,45.00
2022-12-31T13:53:04.115Z,45.00
2022-12-31T13:54:04.108Z,28.12
2022-12-31T13:55:04.122Z,28.12
2022-12-31T13:56:04.102Z,33.75
2022-12-31T13:57:04.085Z,28.12
2022-12-31T13:58:04.087Z,22.50
2022-12-31T13:59:04.062Z,22.50
2022-12-31T14:00:04.072Z,22.50
2022-12-31T14:01:04.143Z,16.88
2022-12-31T14:02:04.170Z,22.50
2022-12-31T14:03:04.100Z,22.50
2022-12-31T14:04:04.001Z,22.50
2022-12-31T14:05:03.985Z,22.50
2022-12-31T14:06:04.001Z,33.75
2022-12-31T14:07:03.960Z,39.38
2022-12-31T14:08:03.964Z,33.75
2022-12-31T14:09:03.953Z,33.75
2022-12-31T14:10:03.928Z,28.12
2022-12-31T14:11:03.941Z,28.12
2022-12-31T14:12:03.921Z,28.12
2022-12-31T14:13:03.891Z,28.12
2022-12-31T14:14:03.904Z,22.50
2022-12-31T14:15:03.879Z,16.88
2022-12-31T14:16:03.954Z,16.88
2022-12-31T14:17:03.862Z,11.25
2022-12-31T14:18:03.879Z,11.25
2022-12-31T14:19:03.823Z,11.25
2022-12-31T14:20:03.830Z,11.25
2022-12-31T14:21:03.815Z,11.25
2022-12-31T14:22:03.824Z,11.25
2022-12-31T14:23:03.806Z,11.25
2022-12-31T14:24:03.781Z,11.25
2022-12-31T14:25:03.761Z,11.25
2022-12-31T14:26:03.757Z,11.25
2022-12-31T14:27:03.741Z,11.25
2022-12-31T14:28:03.758Z,5.62
2022-12-31T14:29:03.719Z,5.62
2022-12-31T14:30:03.720Z,5.62
2022-12-31T14:31:03.694Z,11.25
2022-12-31T14:32:03.744Z,11.25
2022-12-31T14:33:03.696Z,11.25
2022-12-31T14:34:03.669Z,11.25
2022-12-31T14:35:03.665Z,11.25
2022-12-31T14:36:09.982Z,11.25
2022-12-31T14:37:04.641Z,11.25
2022-12-31T14:38:03.630Z,11.25
2022-12-31T14:39:03.618Z,11.25
2022-12-31T14:40:03.714Z,11.25
2022-12-31T14:41:03.578Z,11.25
2022-12-31T14:42:03.568Z,11.25
2022-12-31T14:43:03.579Z,11.25
2022-12-31T14:44:03.559Z,11.25
2022-12-31T14:45:03.548Z,11.25
2022-12-31T14:46:03.631Z,11.25
2022-12-31T14:47:03.524Z,11.25
2022-12-31T14:48:03.511Z,11.25
2022-12-31T14:49:03.540Z,11.25
2022-12-31T14:50:03.638Z,11.25
2022-12-31T14:51:03.483Z,11.25
2022-12-31T14:52:03.468Z,11.25
2022-12-31T14:53:03.495Z,5.62
2022-12-31T14:54:03.443Z,5.62
2022-12-31T14:55:03.453Z,5.62
2022-12-31T14:56:03.422Z,5.62
2022-12-31T14:57:03.398Z,5.62
2022-12-31T14:58:32.083Z,5.62
2022-12-31T14:59:04.398Z,5.62
2022-12-31T15:00:03.482Z,5.62
2022-12-31T15:01:03.554Z,5.62
2022-12-31T15:02:03.728Z,5.62
2022-12-31T15:03:03.414Z,5.62
2022-12-31T15:04:03.333Z,0.00
2022-12-31T15:05:03.346Z,0.00
2022-12-31T15:06:03.310Z,0.00
2022-12-31T15:07:03.306Z,0.00
2022-12-31T15:08:04.299Z,0.00
2022-12-31T15:09:07.935Z,0.00
2022-12-31T15:10:04.296Z,0.00
2022-12-31T15:11:03.256Z,0.00
2022-12-31T15:12:03.229Z,0.00
2022-12-31T15:13:03.234Z,0.00
2022-12-31T15:14:03.240Z,0.00
2022-12-31T15:15:03.214Z,0.00
2022-12-31T15:16:03.211Z,0.00
2022-12-31T15:17:03.258Z,0.00
2022-12-31T15:18:03.199Z,0.00
2022-12-31T15:19:03.163Z,0.00
2022-12-31T15:20:03.141Z,0.00
2022-12-31T15:21:03.166Z,0.00
2022-12-31T15:22:03.114Z,0.00
2022-12-31T15:23:03.124Z,0.00
2022-12-31T15:24:03.091Z,0.00
2022-12-31T15:25:03.101Z,0.00
2022-12-31T15:26:03.120Z,0.00
2022-12-31T15:27:03.098Z,0.00
2022-12-31T15:28:03.066Z,0.00
2022-12-31T15:29:04.056Z,0.00
2022-12-31T15:30:03.024Z,0.00
2022-12-31T15:31:03.047Z,0.00
2022-12-31T15:32:03.025Z,0.00
2022-12-31T15:33:02.995Z,0.00
2022-12-31T15:34:03.025Z,0.00
2022-12-31T15:35:03.013Z,0.00
2022-12-31T15:36:02.957Z,0.00
2022-12-31T15:37:02.965Z,0.00
2022-12-31T15:38:02.953Z,0.00
2022-12-31T15:39:03.941Z,0.00
2022-12-31T15:40:02.932Z,0.00
2022-12-31T15:41:02.923Z,0.00
2022-12-31T15:42:36.785Z,0.00
2022-12-31T15:43:03.937Z,0.00
2022-12-31T15:44:02.879Z,0.00
2022-12-31T15:45:02.878Z,0.00
2022-12-31T15:46:02.905Z,0.00
2022-12-31T15:47:02.840Z,0.00
2022-12-31T15:48:02.852Z,0.00
2022-12-31T15:49:05.967Z,0.00
2022-12-31T15:50:03.841Z,0.00
2022-12-31T15:51:02.829Z,0.00
2022-12-31T15:52:03.778Z,0.00
2022-12-31T15:53:02.803Z,0.00
2022-12-31T15:54:02.778Z,0.00
